EZS41KF LDSP-LFSB
Flight info
| Callsign | EZS41KF |
|---|---|
| Flight time | 1h 25m |
| Altitude | 38000 |
| Route | ZDA DCT PEVAL DCT SOTOV DCT KPT L856 AKABI/N0441F390 L856 TRA/N0335F180 T718 RIGVI |
| Aircraft | A320/M-SDE2E3FGHIJ1RWXYZ/LB1 |
Departure
| Time | 2026-05-05 13:03 |
|---|---|
| Airport | Split Saint Jerome Airport (LDSP) |
Arrival
| Time | 2026-05-05 14:28 |
|---|---|
| Airport | EuroAirport Basel–Mulhouse–Freiburg (LFSB) |
| Time | Latitude | Longitude | Altitude | Speed | Heading |
|---|---|---|---|---|---|
| 2026-05-05 12:53 | 43.53582 | 16.29699 | 68 ft | 0 kts | 100° |
| 2026-05-05 12:56 | 43.53580 | 16.29702 | 68 ft | 0 kts | 116° |
| 2026-05-05 12:56 | 43.53574 | 16.29699 | 61 ft | 1 kts | 188° |
| 2026-05-05 12:57 | 43.53576 | 16.29675 | 62 ft | 5 kts | 276° |
| 2026-05-05 12:57 | 43.53601 | 16.29609 | 63 ft | 11 kts | 318° |
| 2026-05-05 12:57 | 43.53648 | 16.29601 | 64 ft | 7 kts | 32° |
| 2026-05-05 12:57 | 43.53690 | 16.29670 | 69 ft | 12 kts | 52° |
| 2026-05-05 12:58 | 43.53745 | 16.29770 | 62 ft | 13 kts | 52° |
| 2026-05-05 12:58 | 43.53799 | 16.29868 | 63 ft | 12 kts | 53° |
| 2026-05-05 12:58 | 43.53850 | 16.29959 | 65 ft | 11 kts | 53° |
| 2026-05-05 12:58 | 43.53893 | 16.30035 | 65 ft | 8 kts | 49° |
| 2026-05-05 12:59 | 43.53950 | 16.30073 | 70 ft | 14 kts | 15° |
| 2026-05-05 12:59 | 43.54063 | 16.30136 | 67 ft | 20 kts | 33° |
| 2026-05-05 12:59 | 43.54160 | 16.30272 | 68 ft | 21 kts | 51° |
| 2026-05-05 13:00 | 43.54362 | 16.30635 | 57 ft | 25 kts | 52° |
| 2026-05-05 13:00 | 43.54462 | 16.30815 | 52 ft | 19 kts | 52° |
| 2026-05-05 13:01 | 43.54580 | 16.31037 | 56 ft | 5 kts | 276° |
| 2026-05-05 13:01 | 43.54565 | 16.31001 | 53 ft | 0 kts | 233° |
| 2026-05-05 13:02 | 43.54545 | 16.30965 | 59 ft | 26 kts | 231° |
| 2026-05-05 13:02 | 43.54265 | 16.30462 | 54 ft | 101 kts | 232° |
| 2026-05-05 13:02 | 43.53720 | 16.29485 | 98 ft | 153 kts | 233° |
| 2026-05-05 13:03 | 43.53060 | 16.28272 | 684 ft | 161 kts | 227° |
| 2026-05-05 13:03 | 43.52327 | 16.27031 | 1243 ft | 178 kts | 227° |
| 2026-05-05 13:03 | 43.51478 | 16.25658 | 1629 ft | 200 kts | 225° |
| 2026-05-05 13:03 | 43.50525 | 16.24129 | 2121 ft | 226 kts | 223° |
| 2026-05-05 13:04 | 43.49456 | 16.22399 | 2803 ft | 246 kts | 225° |
| 2026-05-05 13:04 | 43.48329 | 16.20535 | 3844 ft | 252 kts | 225° |
| 2026-05-05 13:04 | 43.47216 | 16.18661 | 4919 ft | 255 kts | 226° |
| 2026-05-05 13:04 | 43.46356 | 16.16471 | 5865 ft | 270 kts | 252° |
| 2026-05-05 13:05 | 43.46371 | 16.13881 | 6828 ft | 284 kts | 283° |
| 2026-05-05 13:05 | 43.47419 | 16.11508 | 7821 ft | 297 kts | 313° |
| 2026-05-05 13:05 | 43.49037 | 16.09727 | 8872 ft | 297 kts | 318° |
| 2026-05-05 13:05 | 43.50690 | 16.08032 | 9985 ft | 295 kts | 319° |
| 2026-05-05 13:06 | 43.52336 | 16.06362 | 10937 ft | 294 kts | 319° |
| 2026-05-05 13:06 | 43.53987 | 16.04680 | 11843 ft | 296 kts | 319° |
| 2026-05-05 13:06 | 43.55648 | 16.02975 | 12753 ft | 299 kts | 318° |
| 2026-05-05 13:06 | 43.57301 | 16.01188 | 13438 ft | 310 kts | 317° |
| 2026-05-05 13:07 | 43.58988 | 15.99181 | 13824 ft | 329 kts | 315° |
| 2026-05-05 13:07 | 43.60701 | 15.97052 | 14488 ft | 333 kts | 314° |
| 2026-05-05 13:07 | 43.62402 | 15.94919 | 15236 ft | 337 kts | 314° |
| 2026-05-05 13:07 | 43.64168 | 15.92706 | 16012 ft | 341 kts | 314° |
| 2026-05-05 13:08 | 43.65942 | 15.90497 | 16746 ft | 346 kts | 315° |
| 2026-05-05 13:08 | 43.67746 | 15.88267 | 17455 ft | 350 kts | 315° |
| 2026-05-05 13:08 | 43.69576 | 15.86016 | 18131 ft | 354 kts | 315° |
| 2026-05-05 13:08 | 43.71402 | 15.83773 | 18735 ft | 358 kts | 315° |
| 2026-05-05 13:09 | 43.73274 | 15.81471 | 19310 ft | 362 kts | 315° |
| 2026-05-05 13:09 | 43.75164 | 15.79149 | 19880 ft | 366 kts | 315° |
| 2026-05-05 13:09 | 43.77074 | 15.76797 | 20445 ft | 369 kts | 315° |
| 2026-05-05 13:09 | 43.79000 | 15.74419 | 21007 ft | 373 kts | 315° |
| 2026-05-05 13:10 | 43.80945 | 15.72011 | 21565 ft | 377 kts | 315° |
| 2026-05-05 13:10 | 43.82908 | 15.69578 | 22115 ft | 381 kts | 315° |
| 2026-05-05 13:10 | 43.84889 | 15.67120 | 22654 ft | 384 kts | 315° |
| 2026-05-05 13:10 | 43.86893 | 15.64640 | 23188 ft | 388 kts | 315° |
| 2026-05-05 13:11 | 43.88918 | 15.62136 | 23734 ft | 392 kts | 315° |
| 2026-05-05 13:11 | 43.90955 | 15.59617 | 24213 ft | 394 kts | 315° |
| 2026-05-05 13:11 | 43.93003 | 15.57076 | 24715 ft | 396 kts | 315° |
| 2026-05-05 13:11 | 43.95057 | 15.54517 | 25178 ft | 398 kts | 315° |
| 2026-05-05 13:12 | 43.97124 | 15.51937 | 25628 ft | 401 kts | 315° |
| 2026-05-05 13:12 | 43.99202 | 15.49341 | 26097 ft | 403 kts | 315° |
| 2026-05-05 13:12 | 44.01289 | 15.46734 | 26559 ft | 405 kts | 315° |
| 2026-05-05 13:12 | 44.03388 | 15.44111 | 27010 ft | 407 kts | 315° |
| 2026-05-05 13:13 | 44.05495 | 15.41478 | 27448 ft | 409 kts | 315° |
| 2026-05-05 13:13 | 44.07617 | 15.38828 | 27886 ft | 411 kts | 315° |
| 2026-05-05 13:13 | 44.09701 | 15.36102 | 28307 ft | 411 kts | 310° |
| 2026-05-05 13:13 | 44.11547 | 15.33071 | 28765 ft | 410 kts | 307° |
| 2026-05-05 13:14 | 44.13366 | 15.30004 | 29226 ft | 411 kts | 307° |
| 2026-05-05 13:14 | 44.15191 | 15.26927 | 29648 ft | 413 kts | 307° |
| 2026-05-05 13:14 | 44.17024 | 15.23837 | 30074 ft | 415 kts | 307° |
| 2026-05-05 13:14 | 44.18852 | 15.20754 | 30300 ft | 421 kts | 307° |
| 2026-05-05 13:15 | 44.20721 | 15.17596 | 30572 ft | 424 kts | 307° |
| 2026-05-05 13:15 | 44.22601 | 15.14419 | 30904 ft | 425 kts | 307° |
| 2026-05-05 13:15 | 44.24510 | 15.11191 | 31252 ft | 426 kts | 307° |
| 2026-05-05 13:15 | 44.26395 | 15.07998 | 31593 ft | 427 kts | 307° |
| 2026-05-05 13:16 | 44.28250 | 15.04853 | 32062 ft | 423 kts | 307° |
| 2026-05-05 13:16 | 44.30111 | 15.01699 | 32650 ft | 417 kts | 307° |
| 2026-05-05 13:16 | 44.31943 | 14.98592 | 33234 ft | 412 kts | 306° |
| 2026-05-05 13:16 | 44.33757 | 14.95513 | 33774 ft | 409 kts | 306° |
| 2026-05-05 13:17 | 44.35553 | 14.92457 | 34266 ft | 405 kts | 306° |
| 2026-05-05 13:17 | 44.37334 | 14.89420 | 34664 ft | 403 kts | 306° |
| 2026-05-05 13:17 | 44.39108 | 14.86390 | 35004 ft | 402 kts | 306° |
| 2026-05-05 13:17 | 44.40879 | 14.83364 | 35352 ft | 402 kts | 306° |
| 2026-05-05 13:18 | 44.42650 | 14.80338 | 35673 ft | 402 kts | 306° |
| 2026-05-05 13:18 | 44.44423 | 14.77301 | 35923 ft | 404 kts | 306° |
| 2026-05-05 13:18 | 44.46199 | 14.74250 | 36192 ft | 404 kts | 306° |
| 2026-05-05 13:18 | 44.47973 | 14.71201 | 36478 ft | 404 kts | 306° |
| 2026-05-05 13:19 | 44.49748 | 14.68148 | 36760 ft | 404 kts | 306° |
| 2026-05-05 13:19 | 44.51518 | 14.65104 | 37034 ft | 403 kts | 306° |
| 2026-05-05 13:19 | 44.53288 | 14.62061 | 37305 ft | 403 kts | 306° |
| 2026-05-05 13:19 | 44.55058 | 14.59012 | 37562 ft | 402 kts | 306° |
| 2026-05-05 13:20 | 44.56820 | 14.55972 | 37842 ft | 402 kts | 306° |
| 2026-05-05 13:20 | 44.58584 | 14.52925 | 38018 ft | 402 kts | 306° |
| 2026-05-05 13:20 | 44.62101 | 14.46853 | 38041 ft | 400 kts | 306° |
| 2026-05-05 13:21 | 44.65636 | 14.40731 | 38041 ft | 407 kts | 306° |
| 2026-05-05 13:21 | 44.69199 | 14.34532 | 38038 ft | 409 kts | 306° |
| 2026-05-05 13:22 | 44.72779 | 14.28318 | 38038 ft | 409 kts | 306° |
| 2026-05-05 13:22 | 44.76355 | 14.22086 | 38037 ft | 409 kts | 306° |
| 2026-05-05 13:23 | 44.79925 | 14.15842 | 38042 ft | 410 kts | 306° |
| 2026-05-05 13:23 | 44.83496 | 14.09580 | 38038 ft | 410 kts | 306° |
| 2026-05-05 13:24 | 44.87041 | 14.03349 | 38067 ft | 410 kts | 306° |
| 2026-05-05 13:24 | 44.90607 | 13.97060 | 38068 ft | 411 kts | 306° |
| 2026-05-05 13:25 | 44.94181 | 13.90763 | 38076 ft | 411 kts | 306° |
| 2026-05-05 13:25 | 44.97757 | 13.84458 | 38073 ft | 412 kts | 306° |
| 2026-05-05 13:26 | 45.00752 | 13.79157 | 38040 ft | 412 kts | 306° |
| 2026-05-05 13:26 | 45.04298 | 13.72864 | 38037 ft | 412 kts | 306° |
| 2026-05-05 13:27 | 45.07871 | 13.66517 | 38037 ft | 413 kts | 306° |
| 2026-05-05 13:27 | 45.11435 | 13.60151 | 38024 ft | 412 kts | 306° |
| 2026-05-05 13:28 | 45.14988 | 13.53800 | 38037 ft | 411 kts | 306° |
| 2026-05-05 13:28 | 45.18538 | 13.47434 | 38038 ft | 412 kts | 306° |
| 2026-05-05 13:29 | 45.22098 | 13.41048 | 38036 ft | 413 kts | 306° |
| 2026-05-05 13:29 | 45.25661 | 13.34651 | 38029 ft | 413 kts | 306° |
| 2026-05-05 13:30 | 45.29213 | 13.28238 | 38029 ft | 413 kts | 306° |
| 2026-05-05 13:30 | 45.33184 | 13.22317 | 38029 ft | 418 kts | 316° |
| 2026-05-05 13:31 | 45.37633 | 13.16994 | 38022 ft | 418 kts | 316° |
| 2026-05-05 13:31 | 45.42075 | 13.11638 | 38040 ft | 419 kts | 316° |
| 2026-05-05 13:32 | 45.46507 | 13.06268 | 38038 ft | 419 kts | 316° |
| 2026-05-05 13:32 | 45.50951 | 13.00896 | 38032 ft | 419 kts | 316° |
| 2026-05-05 13:33 | 45.55394 | 12.95522 | 38044 ft | 419 kts | 316° |
| 2026-05-05 13:33 | 45.59832 | 12.90137 | 38038 ft | 419 kts | 316° |
| 2026-05-05 13:34 | 45.64246 | 12.84774 | 38029 ft | 419 kts | 316° |
| 2026-05-05 13:34 | 45.68691 | 12.79365 | 38032 ft | 420 kts | 316° |
| 2026-05-05 13:35 | 45.73130 | 12.73943 | 38035 ft | 420 kts | 316° |
| 2026-05-05 13:35 | 45.77565 | 12.68507 | 38038 ft | 419 kts | 316° |
| 2026-05-05 13:36 | 45.81998 | 12.63068 | 38049 ft | 420 kts | 315° |
| 2026-05-05 13:36 | 45.86432 | 12.57615 | 38045 ft | 420 kts | 315° |
| 2026-05-05 13:37 | 45.90862 | 12.52146 | 38047 ft | 420 kts | 315° |
| 2026-05-05 13:37 | 45.95299 | 12.46670 | 38041 ft | 421 kts | 315° |
| 2026-05-05 13:38 | 45.99732 | 12.41178 | 38039 ft | 421 kts | 315° |
| 2026-05-05 13:38 | 46.04166 | 12.35683 | 38045 ft | 421 kts | 315° |
| 2026-05-05 13:39 | 46.08603 | 12.30183 | 38032 ft | 421 kts | 315° |
| 2026-05-05 13:39 | 46.13032 | 12.24669 | 38027 ft | 421 kts | 315° |
| 2026-05-05 13:40 | 46.17454 | 12.19134 | 38017 ft | 421 kts | 315° |
| 2026-05-05 13:40 | 46.21875 | 12.13589 | 38008 ft | 421 kts | 315° |
| 2026-05-05 13:41 | 46.26304 | 12.08037 | 38015 ft | 421 kts | 315° |
| 2026-05-05 13:41 | 46.30730 | 12.02487 | 38023 ft | 421 kts | 314° |
| 2026-05-05 13:42 | 46.35151 | 11.96908 | 38024 ft | 422 kts | 314° |
| 2026-05-05 13:42 | 46.39579 | 11.91313 | 38008 ft | 423 kts | 314° |
| 2026-05-05 13:43 | 46.43987 | 11.85756 | 38002 ft | 423 kts | 314° |
| 2026-05-05 13:43 | 46.48419 | 11.80133 | 37993 ft | 423 kts | 314° |
| 2026-05-05 13:44 | 46.52875 | 11.74460 | 37993 ft | 423 kts | 314° |
| 2026-05-05 13:44 | 46.57306 | 11.68820 | 37988 ft | 423 kts | 314° |
| 2026-05-05 13:45 | 46.61700 | 11.63205 | 37992 ft | 424 kts | 314° |
| 2026-05-05 13:45 | 46.66130 | 11.57542 | 37978 ft | 424 kts | 314° |
| 2026-05-05 13:46 | 46.70563 | 11.51858 | 37977 ft | 425 kts | 314° |
| 2026-05-05 13:46 | 46.74997 | 11.46162 | 37976 ft | 425 kts | 314° |
| 2026-05-05 13:47 | 46.79427 | 11.40450 | 37976 ft | 425 kts | 314° |
| 2026-05-05 13:47 | 46.83860 | 11.34721 | 37958 ft | 426 kts | 314° |
| 2026-05-05 13:48 | 46.88296 | 11.28969 | 37945 ft | 427 kts | 314° |
| 2026-05-05 13:48 | 46.92736 | 11.23194 | 37923 ft | 427 kts | 314° |
| 2026-05-05 13:49 | 46.97447 | 11.17830 | 37919 ft | 431 kts | 320° |
| 2026-05-05 13:49 | 47.02327 | 11.12710 | 37902 ft | 432 kts | 319° |
| 2026-05-05 13:50 | 47.07197 | 11.07549 | 37910 ft | 432 kts | 319° |
| 2026-05-05 13:50 | 47.12076 | 11.02367 | 37877 ft | 433 kts | 319° |
| 2026-05-05 13:51 | 47.16958 | 10.97179 | 37879 ft | 433 kts | 319° |
| 2026-05-05 13:51 | 47.21837 | 10.91980 | 37850 ft | 433 kts | 319° |
| 2026-05-05 13:52 | 47.26713 | 10.86775 | 37851 ft | 433 kts | 319° |
| 2026-05-05 13:52 | 47.31578 | 10.81562 | 37845 ft | 432 kts | 319° |
| 2026-05-05 13:53 | 47.36417 | 10.76365 | 37821 ft | 433 kts | 319° |
| 2026-05-05 13:53 | 47.41297 | 10.71120 | 37810 ft | 435 kts | 319° |
| 2026-05-05 13:54 | 47.46221 | 10.65826 | 37812 ft | 435 kts | 319° |
| 2026-05-05 13:54 | 47.51077 | 10.60577 | 37804 ft | 436 kts | 319° |
| 2026-05-05 13:55 | 47.55971 | 10.55275 | 37827 ft | 437 kts | 319° |
| 2026-05-05 13:55 | 47.60882 | 10.49940 | 37826 ft | 438 kts | 319° |
| 2026-05-05 13:56 | 47.65808 | 10.44563 | 37822 ft | 441 kts | 319° |
| 2026-05-05 13:56 | 47.70448 | 10.38733 | 37811 ft | 432 kts | 305° |
| 2026-05-05 13:57 | 47.72167 | 10.35119 | 37813 ft | 426 kts | 294° |
| 2026-05-05 13:57 | 47.73388 | 10.31164 | 37803 ft | 419 kts | 284° |
| 2026-05-05 13:57 | 47.74303 | 10.22767 | 37808 ft | 409 kts | 265° |
| 2026-05-05 13:58 | 47.74105 | 10.14269 | 37817 ft | 409 kts | 264° |
| 2026-05-05 13:58 | 47.73907 | 10.05805 | 37830 ft | 411 kts | 264° |
| 2026-05-05 13:59 | 47.73601 | 9.93068 | 37837 ft | 412 kts | 264° |
| 2026-05-05 14:00 | 47.73322 | 9.81740 | 37847 ft | 412 kts | 264° |
| 2026-05-05 14:00 | 47.73058 | 9.71844 | 37862 ft | 413 kts | 264° |
| 2026-05-05 14:01 | 47.72826 | 9.63320 | 37879 ft | 414 kts | 264° |
| 2026-05-05 14:01 | 47.72582 | 9.54765 | 37878 ft | 415 kts | 264° |
| 2026-05-05 14:02 | 47.72327 | 9.46198 | 37558 ft | 415 kts | 264° |
| 2026-05-05 14:02 | 47.72199 | 9.41919 | 37284 ft | 415 kts | 264° |
| 2026-05-05 14:02 | 47.72076 | 9.37632 | 36929 ft | 416 kts | 264° |
| 2026-05-05 14:03 | 47.71957 | 9.33329 | 36149 ft | 418 kts | 264° |
| 2026-05-05 14:03 | 47.71839 | 9.29010 | 35393 ft | 421 kts | 264° |
| 2026-05-05 14:03 | 47.71722 | 9.24672 | 34878 ft | 418 kts | 264° |
| 2026-05-05 14:03 | 47.71605 | 9.20378 | 34354 ft | 416 kts | 264° |
| 2026-05-05 14:04 | 47.71481 | 9.16101 | 33817 ft | 414 kts | 263° |
| 2026-05-05 14:04 | 47.71351 | 9.11846 | 33240 ft | 411 kts | 263° |
| 2026-05-05 14:04 | 47.71215 | 9.07616 | 32722 ft | 408 kts | 263° |
| 2026-05-05 14:04 | 47.71076 | 9.03421 | 32195 ft | 405 kts | 263° |
| 2026-05-05 14:05 | 47.70936 | 8.99254 | 31677 ft | 403 kts | 263° |
| 2026-05-05 14:05 | 47.70797 | 8.95104 | 31157 ft | 401 kts | 263° |
| 2026-05-05 14:05 | 47.70655 | 8.90982 | 30660 ft | 399 kts | 262° |
| 2026-05-05 14:05 | 47.70514 | 8.86885 | 30155 ft | 396 kts | 262° |
| 2026-05-05 14:06 | 47.70375 | 8.82812 | 29639 ft | 394 kts | 263° |
| 2026-05-05 14:06 | 47.70235 | 8.78771 | 29128 ft | 390 kts | 263° |
| 2026-05-05 14:06 | 47.70093 | 8.74768 | 28659 ft | 386 kts | 263° |
| 2026-05-05 14:06 | 47.69952 | 8.70807 | 28196 ft | 382 kts | 263° |
| 2026-05-05 14:07 | 47.69814 | 8.66890 | 27747 ft | 378 kts | 263° |
| 2026-05-05 14:07 | 47.69676 | 8.63014 | 27299 ft | 374 kts | 263° |
| 2026-05-05 14:07 | 47.69538 | 8.59171 | 26857 ft | 371 kts | 263° |
| 2026-05-05 14:07 | 47.69397 | 8.55366 | 26416 ft | 368 kts | 263° |
| 2026-05-05 14:08 | 47.69254 | 8.51586 | 25969 ft | 366 kts | 263° |
| 2026-05-05 14:08 | 47.69199 | 8.47824 | 25518 ft | 366 kts | 271° |
| 2026-05-05 14:08 | 47.69627 | 8.44100 | 25057 ft | 368 kts | 283° |
| 2026-05-05 14:08 | 47.70585 | 8.40572 | 24586 ft | 371 kts | 296° |
| 2026-05-05 14:09 | 47.72009 | 8.37368 | 24091 ft | 373 kts | 303° |
| 2026-05-05 14:09 | 47.73015 | 8.35303 | 23751 ft | 373 kts | 303° |
| 2026-05-05 14:09 | 47.74528 | 8.32179 | 23228 ft | 372 kts | 303° |
| 2026-05-05 14:09 | 47.76033 | 8.29053 | 22690 ft | 371 kts | 303° |
| 2026-05-05 14:10 | 47.77529 | 8.25938 | 22194 ft | 369 kts | 303° |
| 2026-05-05 14:10 | 47.79012 | 8.22839 | 21702 ft | 367 kts | 303° |
| 2026-05-05 14:10 | 47.80487 | 8.19751 | 21210 ft | 366 kts | 303° |
| 2026-05-05 14:10 | 47.81957 | 8.16670 | 20723 ft | 364 kts | 303° |
| 2026-05-05 14:11 | 47.83412 | 8.13623 | 20249 ft | 363 kts | 303° |
| 2026-05-05 14:11 | 47.84875 | 8.10558 | 19771 ft | 362 kts | 302° |
| 2026-05-05 14:11 | 47.86335 | 8.07509 | 19298 ft | 361 kts | 302° |
| 2026-05-05 14:11 | 47.87789 | 8.04467 | 18820 ft | 359 kts | 302° |
| 2026-05-05 14:12 | 47.89230 | 8.01438 | 18353 ft | 358 kts | 302° |
| 2026-05-05 14:12 | 47.90664 | 7.98413 | 17852 ft | 357 kts | 302° |
| 2026-05-05 14:12 | 47.92089 | 7.95408 | 17376 ft | 353 kts | 302° |
| 2026-05-05 14:12 | 47.93499 | 7.92436 | 16941 ft | 349 kts | 302° |
| 2026-05-05 14:13 | 47.94892 | 7.89495 | 16511 ft | 345 kts | 302° |
| 2026-05-05 14:13 | 47.96272 | 7.86578 | 16088 ft | 342 kts | 302° |
| 2026-05-05 14:13 | 47.97619 | 7.83725 | 15674 ft | 340 kts | 302° |
| 2026-05-05 14:13 | 47.98974 | 7.80846 | 15249 ft | 338 kts | 302° |
| 2026-05-05 14:14 | 48.00316 | 7.77985 | 14838 ft | 335 kts | 302° |
| 2026-05-05 14:14 | 48.01648 | 7.75140 | 14425 ft | 333 kts | 302° |
| 2026-05-05 14:14 | 48.02973 | 7.72311 | 14014 ft | 331 kts | 301° |
| 2026-05-05 14:14 | 48.04293 | 7.69498 | 13650 ft | 329 kts | 302° |
| 2026-05-05 14:15 | 48.05603 | 7.66711 | 13178 ft | 330 kts | 301° |
| 2026-05-05 14:15 | 48.06920 | 7.63913 | 12679 ft | 330 kts | 301° |
| 2026-05-05 14:15 | 48.08232 | 7.61125 | 12347 ft | 325 kts | 301° |
| 2026-05-05 14:15 | 48.09424 | 7.58309 | 11757 ft | 316 kts | 288° |
| 2026-05-05 14:16 | 48.09834 | 7.55230 | 11542 ft | 293 kts | 266° |
| 2026-05-05 14:16 | 48.09467 | 7.52332 | 11063 ft | 279 kts | 245° |
| 2026-05-05 14:16 | 48.08414 | 7.49956 | 10421 ft | 274 kts | 224° |
| 2026-05-05 14:16 | 48.06852 | 7.48383 | 9803 ft | 271 kts | 203° |
| 2026-05-05 14:17 | 48.05060 | 7.47670 | 9326 ft | 262 kts | 194° |
| 2026-05-05 14:17 | 48.03287 | 7.47092 | 8911 ft | 261 kts | 194° |
| 2026-05-05 14:17 | 48.01526 | 7.46508 | 8595 ft | 257 kts | 194° |
| 2026-05-05 14:17 | 47.99784 | 7.45928 | 8213 ft | 256 kts | 195° |
| 2026-05-05 14:18 | 47.98046 | 7.45349 | 7802 ft | 256 kts | 195° |
| 2026-05-05 14:18 | 47.96306 | 7.44771 | 7397 ft | 256 kts | 194° |
| 2026-05-05 14:18 | 47.94561 | 7.44193 | 6963 ft | 257 kts | 194° |
| 2026-05-05 14:18 | 47.92809 | 7.43615 | 6526 ft | 258 kts | 195° |
| 2026-05-05 14:19 | 47.91054 | 7.43035 | 6070 ft | 259 kts | 195° |
| 2026-05-05 14:19 | 47.89297 | 7.42457 | 5604 ft | 259 kts | 194° |
| 2026-05-05 14:19 | 47.87551 | 7.41884 | 5316 ft | 252 kts | 194° |
| 2026-05-05 14:19 | 47.85896 | 7.41345 | 5255 ft | 236 kts | 195° |
| 2026-05-05 14:20 | 47.84337 | 7.40840 | 5171 ft | 222 kts | 195° |
| 2026-05-05 14:20 | 47.82869 | 7.40363 | 5068 ft | 210 kts | 195° |
| 2026-05-05 14:20 | 47.81468 | 7.39902 | 4984 ft | 205 kts | 195° |
| 2026-05-05 14:20 | 47.80082 | 7.39444 | 4892 ft | 204 kts | 194° |
| 2026-05-05 14:21 | 47.78661 | 7.39360 | 4804 ft | 207 kts | 174° |
| 2026-05-05 14:21 | 47.77288 | 7.40055 | 4703 ft | 211 kts | 159° |
| 2026-05-05 14:21 | 47.75965 | 7.40985 | 4611 ft | 210 kts | 159° |
| 2026-05-05 14:21 | 47.74635 | 7.41918 | 4343 ft | 213 kts | 159° |
| 2026-05-05 14:22 | 47.73299 | 7.42865 | 4026 ft | 213 kts | 158° |
| 2026-05-05 14:22 | 47.71964 | 7.43811 | 3730 ft | 211 kts | 158° |
| 2026-05-05 14:22 | 47.70659 | 7.44736 | 3434 ft | 204 kts | 158° |
| 2026-05-05 14:22 | 47.69408 | 7.45624 | 3179 ft | 193 kts | 158° |
| 2026-05-05 14:23 | 47.68228 | 7.46460 | 2900 ft | 183 kts | 157° |
| 2026-05-05 14:23 | 47.67103 | 7.47253 | 2641 ft | 175 kts | 157° |
| 2026-05-05 14:23 | 47.66026 | 7.48011 | 2398 ft | 167 kts | 156° |
| 2026-05-05 14:23 | 47.64994 | 7.48740 | 2172 ft | 162 kts | 155° |
| 2026-05-05 14:24 | 47.63986 | 7.49454 | 1945 ft | 159 kts | 156° |
| 2026-05-05 14:24 | 47.63128 | 7.50463 | 1832 ft | 162 kts | 125° |
| 2026-05-05 14:24 | 47.62735 | 7.52044 | 1806 ft | 166 kts | 110° |
| 2026-05-05 14:24 | 47.62300 | 7.53629 | 1810 ft | 166 kts | 115° |
| 2026-05-05 14:25 | 47.61833 | 7.55179 | 1892 ft | 167 kts | 98° |
| 2026-05-05 14:25 | 47.62078 | 7.56872 | 1885 ft | 170 kts | 69° |
| 2026-05-05 14:25 | 47.62262 | 7.58481 | 1947 ft | 153 kts | 104° |
| 2026-05-05 14:25 | 47.61587 | 7.59550 | 1847 ft | 144 kts | 165° |
| 2026-05-05 14:26 | 47.60629 | 7.59890 | 1844 ft | 141 kts | 168° |
| 2026-05-05 14:26 | 47.59671 | 7.60033 | 1806 ft | 137 kts | 204° |
| 2026-05-05 14:26 | 47.59166 | 7.58981 | 1722 ft | 135 kts | 268° |
| 2026-05-05 14:26 | 47.59323 | 7.57640 | 1635 ft | 134 kts | 289° |
| 2026-05-05 14:27 | 47.59505 | 7.56296 | 1420 ft | 133 kts | 263° |
| 2026-05-05 14:27 | 47.59296 | 7.54960 | 1150 ft | 132 kts | 259° |
| 2026-05-05 14:27 | 47.59099 | 7.53658 | 908 ft | 127 kts | 261° |
| 2026-05-05 14:27 | 47.58939 | 7.52615 | 891 ft | 66 kts | 257° |
| 2026-05-05 14:28 | 47.58877 | 7.52218 | 893 ft | 31 kts | 257° |
| 2026-05-05 14:28 | 47.58832 | 7.51936 | 894 ft | 26 kts | 256° |
| 2026-05-05 14:28 | 47.58823 | 7.51731 | 892 ft | 17 kts | 295° |
| 2026-05-05 14:28 | 47.58904 | 7.51673 | 890 ft | 10 kts | 349° |
| 2026-05-05 14:29 | 47.58971 | 7.51708 | 890 ft | 16 kts | 41° |
| 2026-05-05 14:29 | 47.59059 | 7.51839 | 890 ft | 17 kts | 45° |
| 2026-05-05 14:29 | 47.59144 | 7.51965 | 890 ft | 18 kts | 45° |
| 2026-05-05 14:29 | 47.59241 | 7.52110 | 890 ft | 21 kts | 47° |
| 2026-05-05 14:30 | 47.59310 | 7.52299 | 890 ft | 18 kts | 64° |
| 2026-05-05 14:30 | 47.59362 | 7.52462 | 890 ft | 19 kts | 65° |
| 2026-05-05 14:30 | 47.59412 | 7.52621 | 889 ft | 11 kts | 65° |
| 2026-05-05 14:30 | 47.59443 | 7.52715 | 890 ft | 14 kts | 64° |
| 2026-05-05 14:31 | 47.59485 | 7.52831 | 890 ft | 13 kts | 43° |
| 2026-05-05 14:31 | 47.59573 | 7.52809 | 890 ft | 11 kts | 334° |
| 2026-05-05 14:31 | 47.59627 | 7.52816 | 890 ft | 10 kts | 48° |
| 2026-05-05 14:31 | 47.59667 | 7.52931 | 890 ft | 14 kts | 65° |
| 2026-05-05 14:32 | 47.59705 | 7.53016 | 890 ft | 10 kts | 28° |
| 2026-05-05 14:32 | 47.59755 | 7.53052 | 890 ft | 8 kts | 54° |
| 2026-05-05 14:32 | 47.59737 | 7.53113 | 890 ft | 5 kts | 119° |
| 2026-05-05 14:32 | 47.59749 | 7.53174 | 890 ft | 5 kts | 66° |
| 2026-05-05 14:33 | 47.59757 | 7.53200 | 890 ft | 0 kts | 64° |